createdAt,value
2018-01-25T00:02:14.683Z,8.60
2018-01-25T00:04:41.628Z,8.50
2018-01-25T00:07:08.123Z,8.40
2018-01-25T00:09:35.385Z,8.30
2018-01-25T00:12:01.895Z,8.30
2018-01-25T00:14:28.412Z,8.40
2018-01-25T00:16:56.088Z,8.30
2018-01-25T00:19:23.450Z,8.20
2018-01-25T00:21:50.383Z,8.20
2018-01-25T00:24:17.786Z,8.10
2018-01-25T00:26:44.326Z,7.90
2018-01-25T00:29:10.864Z,8.00
2018-01-25T00:31:37.501Z,8.00
2018-01-25T00:34:04.157Z,7.90
2018-01-25T00:36:31.009Z,7.80
2018-01-25T00:38:58.421Z,7.80
2018-01-25T00:41:25.309Z,8.30
2018-01-25T00:43:52.675Z,7.60
2018-01-25T00:46:20.235Z,7.70
2018-01-25T00:48:46.893Z,7.70
2018-01-25T00:51:13.328Z,7.70
2018-01-25T00:53:40.098Z,7.60
2018-01-25T00:56:07.376Z,7.60
2018-01-25T00:58:33.929Z,7.50
2018-01-25T01:01:01.859Z,7.60
2018-01-25T01:03:28.362Z,7.60
2018-01-25T01:05:55.612Z,7.60
2018-01-25T01:08:22.134Z,7.60
2018-01-25T01:10:49.093Z,7.50
2018-01-25T01:13:16.114Z,7.60
2018-01-25T01:15:43.923Z,7.50
2018-01-25T01:18:11.469Z,7.60
2018-01-25T01:20:37.969Z,7.50
2018-01-25T01:23:05.401Z,7.50
2018-01-25T01:25:32.742Z,7.50
2018-01-25T01:27:59.994Z,7.50
2018-01-25T01:30:27.195Z,7.50
2018-01-25T01:32:53.726Z,7.50
2018-01-25T01:35:20.256Z,7.50
2018-01-25T01:37:48.028Z,7.50
2018-01-25T01:40:14.629Z,7.30
2018-01-25T01:42:41.269Z,7.50
2018-01-25T01:45:08.721Z,7.50
2018-01-25T01:47:36.008Z,7.50
2018-01-25T01:50:02.545Z,7.50
2018-01-25T01:52:29.718Z,7.50
2018-01-25T01:54:56.991Z,7.50
2018-01-25T01:57:24.274Z,7.60
2018-01-25T01:59:51.828Z,7.60
2018-01-25T02:02:18.389Z,7.50
2018-01-25T02:04:45.635Z,7.50
2018-01-25T02:07:12.128Z,7.40
2018-01-25T02:09:39.482Z,7.50
2018-01-25T02:12:05.967Z,7.60
2018-01-25T02:14:32.577Z,7.50
2018-01-25T02:16:59.358Z,7.60
2018-01-25T02:19:27.048Z,7.50
2018-01-25T02:21:53.964Z,7.50
2018-01-25T02:26:48.570Z,7.60
2018-01-25T02:29:16.543Z,7.50
2018-01-25T02:31:43.505Z,7.80
2018-01-25T02:34:10.068Z,7.50
2018-01-25T02:36:38.230Z,7.60
2018-01-25T02:39:05.149Z,7.50
2018-01-25T02:41:31.605Z,7.50
2018-01-25T02:43:59.133Z,7.90
2018-01-25T02:46:26.014Z,7.50
2018-01-25T02:48:52.909Z,6.90
2018-01-25T02:51:19.452Z,7.60
2018-01-25T02:53:46.668Z,7.50
2018-01-25T02:56:13.165Z,7.30
2018-01-25T02:58:39.734Z,7.50
2018-01-25T03:01:06.222Z,7.50
2018-01-25T03:03:33.280Z,7.50
2018-01-25T03:06:00.840Z,7.50
2018-01-25T03:08:27.362Z,7.50
2018-01-25T03:10:53.892Z,7.30
2018-01-25T03:13:20.425Z,7.50
2018-01-25T03:15:46.959Z,7.40
2018-01-25T03:18:14.339Z,7.40
2018-01-25T03:20:41.139Z,7.40
2018-01-25T03:23:08.392Z,7.40
2018-01-25T03:25:35.052Z,7.40
2018-01-25T03:28:01.792Z,7.20
2018-01-25T03:30:29.927Z,7.30
2018-01-25T03:32:56.637Z,7.30
2018-01-25T03:35:23.541Z,7.30
2018-01-25T03:37:50.448Z,7.30
2018-01-25T03:40:17.061Z,7.30
2018-01-25T03:42:44.551Z,7.20
2018-01-25T03:48:10.807Z,7.20
2018-01-25T03:50:37.351Z,7.30
2018-01-25T03:53:03.842Z,7.20
2018-01-25T03:55:30.752Z,7.20
2018-01-25T03:57:57.222Z,7.30
2018-01-25T04:00:23.805Z,7.30
2018-01-25T04:02:52.952Z,7.30
2018-01-25T04:05:20.406Z,7.30
2018-01-25T04:07:46.910Z,7.30
2018-01-25T04:10:14.557Z,7.30
2018-01-25T04:12:41.112Z,7.30
2018-01-25T04:15:07.638Z,7.30
2018-01-25T04:17:34.517Z,7.20
2018-01-25T04:20:01.055Z,7.20
2018-01-25T04:22:27.578Z,7.30
2018-01-25T04:24:54.276Z,7.30
2018-01-25T04:27:22.261Z,7.30
2018-01-25T04:29:48.805Z,7.30
2018-01-25T04:32:15.783Z,7.30
2018-01-25T04:34:43.183Z,7.30
2018-01-25T04:37:09.616Z,7.20
2018-01-25T04:39:36.333Z,7.30
2018-01-25T04:42:02.782Z,7.20
2018-01-25T04:44:29.375Z,7.20
2018-01-25T04:46:57.021Z,7.20
2018-01-25T04:49:23.528Z,7.20
2018-01-25T04:51:50.112Z,7.20
2018-01-25T04:54:16.916Z,7.20
2018-01-25T04:56:43.393Z,7.30
2018-01-25T04:59:10.309Z,7.20
2018-01-25T05:01:36.944Z,7.20
2018-01-25T05:04:03.908Z,7.20
2018-01-25T05:08:58.689Z,7.30
2018-01-25T05:11:25.162Z,7.20
2018-01-25T05:13:51.652Z,7.20
2018-01-25T05:16:18.981Z,7.20
2018-01-25T05:18:46.648Z,7.30
2018-01-25T05:21:13.219Z,7.20
2018-01-25T05:23:40.555Z,7.20
2018-01-25T05:26:07.109Z,7.20
2018-01-25T05:28:34.243Z,7.30
2018-01-25T05:33:35.732Z,7.30
2018-01-25T05:36:02.375Z,7.30
2018-01-25T05:38:29.518Z,7.40
2018-01-25T05:40:56.434Z,7.30
2018-01-25T05:43:25.385Z,7.30
2018-01-25T05:45:52.556Z,7.30
2018-01-25T05:48:19.079Z,7.30
2018-01-25T05:55:44.407Z,7.30
2018-01-25T05:58:12.074Z,7.20
2018-01-25T06:00:40.516Z,7.30
2018-01-25T06:03:07.792Z,7.20
2018-01-25T06:05:35.052Z,7.30
2018-01-25T06:08:06.469Z,7.20
2018-01-25T06:10:34.033Z,7.30
2018-01-25T06:18:06.377Z,7.40
2018-01-25T06:23:02.640Z,7.40
2018-01-25T06:25:29.320Z,7.40
2018-01-25T06:27:55.789Z,7.30
2018-01-25T06:30:23.072Z,7.40
2018-01-25T06:32:49.972Z,7.40
2018-01-25T06:35:17.328Z,7.40
2018-01-25T06:37:44.398Z,7.00
2018-01-25T06:40:11.314Z,7.50
2018-01-25T06:42:38.233Z,7.40
2018-01-25T06:45:05.260Z,7.40
2018-01-25T06:50:00.856Z,7.50
2018-01-25T06:52:28.269Z,7.40
2018-01-25T06:54:55.310Z,7.50
2018-01-25T06:57:22.537Z,7.40
2018-01-25T06:59:49.756Z,7.40
2018-01-25T07:02:16.695Z,7.50
2018-01-25T07:04:43.254Z,7.40
2018-01-25T07:07:09.686Z,7.50
2018-01-25T07:09:37.305Z,7.40
2018-01-25T07:12:03.826Z,7.40
2018-01-25T07:14:31.785Z,7.50
2018-01-25T07:16:59.139Z,7.50
2018-01-25T07:19:26.084Z,7.50
2018-01-25T07:21:52.568Z,7.40
2018-01-25T07:24:19.243Z,7.40
2018-01-25T07:26:46.089Z,7.40
2018-01-25T07:29:12.659Z,7.40
2018-01-25T07:31:39.216Z,7.50
2018-01-25T07:36:35.138Z,7.40
2018-01-25T07:39:03.153Z,7.30
2018-01-25T07:41:29.649Z,7.30
2018-01-25T07:43:56.957Z,7.30
2018-01-25T07:46:23.494Z,7.20
2018-01-25T07:48:50.470Z,7.20
2018-01-25T07:51:17.385Z,7.20
2018-01-25T07:53:44.596Z,7.10
2018-01-25T07:56:11.214Z,7.00
2018-01-25T07:58:37.736Z,7.10
2018-01-25T08:01:05.499Z,7.20
2018-01-25T08:03:32.900Z,7.20
2018-01-25T08:06:00.280Z,7.10
2018-01-25T08:08:26.827Z,7.20
2018-01-25T08:10:53.428Z,7.30
2018-01-25T08:13:26.072Z,7.40
2018-01-25T08:15:52.816Z,7.40
2018-01-25T08:18:20.069Z,7.40
2018-01-25T08:20:46.772Z,7.30
2018-01-25T08:23:13.501Z,7.30
2018-01-25T08:25:40.384Z,7.40
2018-01-25T08:28:07.741Z,7.50
2018-01-25T08:30:34.238Z,7.40
2018-01-25T08:33:00.951Z,7.50
2018-01-25T08:35:27.956Z,7.50
2018-01-25T08:37:54.394Z,7.60
2018-01-25T08:40:20.886Z,7.50
2018-01-25T08:42:47.333Z,7.70
2018-01-25T08:45:14.757Z,7.70
2018-01-25T08:47:41.754Z,7.60
2018-01-25T08:50:08.603Z,7.90
2018-01-25T08:52:35.884Z,7.80
2018-01-25T08:55:02.384Z,7.90
2018-01-25T08:57:28.859Z,6.30
2018-01-25T08:59:56.336Z,8.00
2018-01-25T09:02:22.880Z,7.90
2018-01-25T09:04:50.240Z,8.00
2018-01-25T09:07:18.595Z,7.90
2018-01-25T09:09:45.137Z,8.20
2018-01-25T09:17:08.354Z,8.20
2018-01-25T09:19:36.396Z,8.20
2018-01-25T09:22:03.684Z,8.20
2018-01-25T09:24:30.517Z,8.30
2018-01-25T09:26:57.023Z,8.20
2018-01-25T09:29:23.874Z,8.20
2018-01-25T09:31:50.483Z,8.40
2018-01-25T09:34:17.008Z,8.40
2018-01-25T09:36:44.451Z,8.40
2018-01-25T09:39:11.033Z,8.30
2018-01-25T09:41:38.340Z,8.40
2018-01-25T09:44:04.862Z,8.40
2018-01-25T09:46:31.457Z,8.50
2018-01-25T09:48:58.096Z,8.40
2018-01-25T09:51:25.555Z,8.40
2018-01-25T09:53:52.363Z,8.40
2018-01-25T09:56:19.239Z,8.50
2018-01-25T09:58:47.156Z,7.90
2018-01-25T10:01:13.679Z,8.70
2018-01-25T10:03:40.125Z,8.60
2018-01-25T10:06:07.903Z,8.70
2018-01-25T10:11:02.646Z,8.90
2018-01-25T10:13:31.953Z,8.90
2018-01-25T10:15:58.800Z,9.00
2018-01-25T10:20:53.637Z,9.20
2018-01-25T10:23:20.157Z,9.30
2018-01-25T10:25:46.798Z,9.30
2018-01-25T10:28:14.295Z,9.10
2018-01-25T10:30:40.759Z,9.40
2018-01-25T10:33:08.671Z,9.30
2018-01-25T10:35:35.189Z,9.40
2018-01-25T10:38:01.692Z,9.20
2018-01-25T10:40:28.958Z,9.00
2018-01-25T10:42:55.567Z,9.10
2018-01-25T10:45:22.448Z,8.50
2018-01-25T10:47:49.617Z,9.30
2018-01-25T10:50:16.264Z,9.40
2018-01-25T10:52:43.114Z,9.60
2018-01-25T10:55:09.584Z,9.60
2018-01-25T10:57:36.272Z,9.60
2018-01-25T11:00:02.997Z,9.70
2018-01-25T11:02:29.589Z,9.70
2018-01-25T11:04:56.704Z,10.00
2018-01-25T11:07:23.609Z,10.80
2018-01-25T11:09:50.930Z,10.20
2018-01-25T11:12:18.011Z,10.10
2018-01-25T11:14:47.690Z,10.20
2018-01-25T11:17:14.578Z,10.10
2018-01-25T11:19:42.059Z,10.20
2018-01-25T11:22:08.563Z,10.20
2018-01-25T11:24:35.069Z,10.20
2018-01-25T11:27:02.004Z,10.30
2018-01-25T11:29:29.606Z,10.10
2018-01-25T11:31:57.277Z,10.10
2018-01-25T11:34:24.969Z,10.10
2018-01-25T11:36:51.488Z,10.20
2018-01-25T11:39:18.417Z,10.30
2018-01-25T11:41:45.392Z,10.30
2018-01-25T11:44:12.227Z,10.30
2018-01-25T11:46:38.697Z,10.10
2018-01-25T11:49:05.968Z,9.80
2018-01-25T11:51:32.457Z,9.90
2018-01-25T11:53:59.060Z,10.00
2018-01-25T11:58:53.775Z,10.10
2018-01-25T12:01:21.389Z,10.00
2018-01-25T12:03:49.023Z,9.60
2018-01-25T12:06:15.499Z,9.60
2018-01-25T12:08:42.740Z,9.70
2018-01-25T12:11:09.761Z,9.60
2018-01-25T12:13:36.725Z,9.60
2018-01-25T12:16:03.684Z,9.70
2018-01-25T12:18:31.178Z,9.50
2018-01-25T12:20:58.506Z,9.40
2018-01-25T12:23:24.996Z,9.50
2018-01-25T12:25:51.614Z,9.50
2018-01-25T12:28:18.201Z,9.60
2018-01-25T12:30:45.531Z,9.60
2018-01-25T12:33:12.839Z,9.40
2018-01-25T12:35:41.056Z,9.40
2018-01-25T12:38:08.685Z,9.20
2018-01-25T12:40:35.663Z,9.30
2018-01-25T12:43:02.528Z,9.40
2018-01-25T12:45:29.693Z,9.40
2018-01-25T12:47:57.666Z,9.40
2018-01-25T12:50:25.070Z,9.30
2018-01-25T12:52:51.648Z,9.20
2018-01-25T12:55:19.606Z,9.20
2018-01-25T13:00:15.139Z,9.40
2018-01-25T13:02:41.717Z,9.40
2018-01-25T13:05:08.134Z,9.30
2018-01-25T13:10:08.571Z,9.40
2018-01-25T13:12:35.096Z,9.30
2018-01-25T13:15:05.020Z,9.20
2018-01-25T13:17:32.442Z,9.30
2018-01-25T13:22:27.226Z,9.30
2018-01-25T13:24:54.857Z,9.20
2018-01-25T13:27:21.377Z,9.20
2018-01-25T13:29:50.232Z,9.10
2018-01-25T13:32:19.392Z,9.10
2018-01-25T13:34:46.379Z,9.00
2018-01-25T13:39:41.861Z,9.20
2018-01-25T13:42:09.204Z,9.20
2018-01-25T13:44:36.070Z,9.40
2018-01-25T13:47:03.899Z,9.30
2018-01-25T13:49:31.153Z,9.20
2018-01-25T13:51:58.507Z,9.20
2018-01-25T13:54:25.631Z,9.20
2018-01-25T13:56:53.325Z,9.10
2018-01-25T13:59:20.584Z,9.10
2018-01-25T14:01:48.051Z,9.10
2018-01-25T14:04:14.586Z,9.10
2018-01-25T14:06:41.120Z,9.10
2018-01-25T14:09:08.222Z,9.10
2018-01-25T14:11:35.247Z,9.10
2018-01-25T14:14:02.161Z,9.00
2018-01-25T14:16:28.993Z,9.00
2018-01-25T14:18:56.344Z,9.00
2018-01-25T14:21:23.786Z,9.00
2018-01-25T14:23:50.549Z,9.00
2018-01-25T14:26:17.799Z,8.90
2018-01-25T14:28:44.342Z,9.00
2018-01-25T14:31:12.469Z,8.90
2018-01-25T14:36:07.192Z,8.90
2018-01-25T14:38:34.623Z,8.80
2018-01-25T14:43:30.186Z,8.70
2018-01-25T14:45:56.751Z,8.60
2018-01-25T14:48:24.071Z,8.50
2018-01-25T14:50:50.768Z,8.60
2018-01-25T14:53:17.170Z,8.50
2018-01-25T14:55:43.631Z,8.40
2018-01-25T15:03:07.236Z,8.30
2018-01-25T15:05:33.722Z,8.30
2018-01-25T15:08:01.634Z,8.00
2018-01-25T15:10:28.201Z,8.10
2018-01-25T15:12:54.956Z,8.10
2018-01-25T15:15:22.330Z,8.00
2018-01-25T15:20:17.908Z,8.00
2018-01-25T15:22:44.801Z,8.10
2018-01-25T15:25:19.156Z,8.00
2018-01-25T15:27:46.322Z,7.80
2018-01-25T15:30:12.910Z,7.90
2018-01-25T15:32:40.963Z,7.90
2018-01-25T15:35:07.966Z,7.60
2018-01-25T15:37:35.207Z,7.80
2018-01-25T15:40:02.346Z,7.90
2018-01-25T15:42:28.924Z,7.90
2018-01-25T15:44:55.706Z,5.60
2018-01-25T15:47:22.716Z,7.90
2018-01-25T15:49:49.604Z,7.90
2018-01-25T15:54:44.362Z,7.90
2018-01-25T15:57:11.958Z,7.80
2018-01-25T15:59:38.524Z,7.80
2018-01-25T16:02:05.084Z,7.70
2018-01-25T16:11:57.228Z,7.60
2018-01-25T16:14:24.554Z,7.60
2018-01-25T16:16:52.536Z,7.50
2018-01-25T16:19:19.981Z,7.50
2018-01-25T16:21:47.718Z,7.50
2018-01-25T16:24:14.218Z,7.60
2018-01-25T16:26:40.925Z,7.50
2018-01-25T16:31:40.024Z,7.50
2018-01-25T16:34:07.242Z,7.40
2018-01-25T16:36:34.625Z,7.40
2018-01-25T16:39:01.245Z,7.60
2018-01-25T16:41:28.663Z,7.20
2018-01-25T16:43:56.530Z,7.10
2018-01-25T16:46:24.056Z,7.20
2018-01-25T16:48:51.133Z,7.10
2018-01-25T16:51:17.814Z,7.10
2018-01-25T16:56:12.565Z,7.10
2018-01-25T16:58:39.214Z,7.10
2018-01-25T17:01:05.780Z,7.00
2018-01-25T17:03:32.862Z,6.80
2018-01-25T17:06:00.184Z,6.90
2018-01-25T17:08:27.132Z,6.80
2018-01-25T17:10:54.663Z,6.80
2018-01-25T17:13:21.452Z,6.70
2018-01-25T17:15:47.995Z,6.60
2018-01-25T17:18:14.618Z,6.60
2018-01-25T17:20:41.137Z,6.60
2018-01-25T17:23:08.185Z,6.60
2018-01-25T17:25:35.980Z,6.70
2018-01-25T17:28:03.722Z,6.70
2018-01-25T17:32:59.262Z,6.80
2018-01-25T17:35:26.230Z,6.70
2018-01-25T17:37:53.516Z,6.70
2018-01-25T17:40:21.367Z,6.80
2018-01-25T17:42:49.943Z,6.80
2018-01-25T17:45:16.948Z,6.70
2018-01-25T17:47:44.266Z,6.40
2018-01-25T17:50:10.792Z,6.70
2018-01-25T17:52:38.335Z,6.70
2018-01-25T17:55:05.387Z,6.60
2018-01-25T17:57:32.022Z,6.60
2018-01-25T17:59:59.352Z,6.70
2018-01-25T18:02:26.804Z,6.70
2018-01-25T18:04:55.317Z,6.70
2018-01-25T18:07:23.000Z,6.70
2018-01-25T18:09:50.145Z,6.70
2018-01-25T18:12:18.454Z,6.80
2018-01-25T18:14:46.172Z,6.70
2018-01-25T18:17:13.169Z,6.80
2018-01-25T18:19:40.098Z,6.60
2018-01-25T18:22:07.412Z,6.60
2018-01-25T18:27:03.750Z,6.60
2018-01-25T18:29:31.762Z,6.60
2018-01-25T18:31:58.438Z,6.60
2018-01-25T18:34:25.062Z,6.70
2018-01-25T18:36:52.473Z,6.70
2018-01-25T18:39:19.206Z,6.80
2018-01-25T18:41:46.206Z,6.70
2018-01-25T18:44:12.913Z,6.80
2018-01-25T18:46:40.430Z,6.90
2018-01-25T18:49:07.316Z,6.70
2018-01-25T18:51:33.830Z,6.80
2018-01-25T18:54:00.445Z,6.90
2018-01-25T18:56:27.776Z,6.80
2018-01-25T18:58:54.331Z,6.70
2018-01-25T19:03:50.557Z,6.70
2018-01-25T19:06:17.422Z,6.70
2018-01-25T19:08:44.709Z,6.80
2018-01-25T19:11:11.973Z,6.80
2018-01-25T19:13:39.284Z,6.80
2018-01-25T19:16:06.024Z,6.80
2018-01-25T19:21:01.373Z,6.80
2018-01-25T19:23:29.398Z,6.80
2018-01-25T19:25:55.930Z,6.80
2018-01-25T19:30:52.233Z,6.70
2018-01-25T19:33:19.424Z,6.80
2018-01-25T19:35:45.925Z,6.60
2018-01-25T19:38:15.597Z,6.60
2018-01-25T19:40:42.281Z,6.80
2018-01-25T19:43:10.412Z,6.70
2018-01-25T19:48:06.790Z,6.80
2018-01-25T19:50:33.991Z,6.80
2018-01-25T19:53:01.089Z,6.80
2018-01-25T19:55:28.539Z,6.80
2018-01-25T19:57:57.018Z,6.70
2018-01-25T20:00:25.464Z,6.70
2018-01-25T20:02:53.203Z,6.70
2018-01-25T20:07:48.192Z,6.70
2018-01-25T20:10:15.148Z,6.70
2018-01-25T20:12:42.468Z,6.50
2018-01-25T20:15:09.772Z,6.50
2018-01-25T20:20:05.590Z,6.40
2018-01-25T20:22:32.753Z,6.50
2018-01-25T20:24:59.331Z,6.30
2018-01-25T20:27:27.503Z,6.30
2018-01-25T20:29:54.385Z,6.20
2018-01-25T20:32:22.230Z,6.20
2018-01-25T20:34:49.626Z,6.20
2018-01-25T20:37:16.488Z,6.10
2018-01-25T20:39:43.794Z,6.10
2018-01-25T20:42:11.434Z,6.10
2018-01-25T20:44:38.144Z,6.20
2018-01-25T20:47:04.731Z,6.10
2018-01-25T20:49:31.255Z,6.10
2018-01-25T20:51:57.829Z,5.90
2018-01-25T20:54:25.582Z,5.90
2018-01-25T20:56:52.131Z,5.90
2018-01-25T20:59:19.076Z,5.90
2018-01-25T21:01:45.680Z,5.80
2018-01-25T21:04:12.220Z,5.80
2018-01-25T21:06:38.926Z,5.70
2018-01-25T21:09:06.138Z,5.80
2018-01-25T21:11:33.819Z,5.80
2018-01-25T21:14:00.432Z,5.90
2018-01-25T21:16:27.532Z,5.80
2018-01-25T21:18:54.532Z,5.70
2018-01-25T21:21:21.623Z,6.00
2018-01-25T21:23:48.177Z,5.70
2018-01-25T21:26:15.040Z,5.70
2018-01-25T21:28:43.004Z,5.40
2018-01-25T21:31:09.576Z,5.70
2018-01-25T21:33:36.153Z,5.80
2018-01-25T21:36:03.652Z,5.60
2018-01-25T21:38:31.270Z,5.60
2018-01-25T21:40:58.644Z,5.50
2018-01-25T21:43:28.414Z,5.50
2018-01-25T21:45:55.751Z,5.40
2018-01-25T21:48:23.104Z,5.50
2018-01-25T21:50:49.943Z,5.50
2018-01-25T21:53:16.665Z,5.60
2018-01-25T21:55:43.537Z,5.60
2018-01-25T21:58:11.009Z,5.60
2018-01-25T22:00:38.074Z,5.60
2018-01-25T22:05:33.693Z,5.50
2018-01-25T22:08:00.582Z,5.60
2018-01-25T22:10:29.237Z,5.30
2018-01-25T22:12:55.772Z,5.00
2018-01-25T22:15:23.148Z,5.00
2018-01-25T22:17:50.707Z,4.90
2018-01-25T22:20:18.944Z,4.80
2018-01-25T22:22:45.749Z,5.00
2018-01-25T22:25:13.635Z,5.00
2018-01-25T22:27:40.245Z,5.00
2018-01-25T22:30:06.912Z,5.00
2018-01-25T22:32:34.633Z,5.20
2018-01-25T22:35:02.626Z,5.30
2018-01-25T22:37:29.361Z,5.40
2018-01-25T22:39:56.267Z,5.40
2018-01-25T22:42:24.496Z,5.40
2018-01-25T22:44:51.152Z,5.40
2018-01-25T22:47:18.130Z,5.40
2018-01-25T22:49:45.985Z,5.40
2018-01-25T22:52:13.296Z,5.30
2018-01-25T22:54:40.124Z,5.50
2018-01-25T22:57:07.465Z,5.30
2018-01-25T22:59:34.840Z,5.30
2018-01-25T23:02:01.578Z,5.30
2018-01-25T23:04:28.656Z,5.40
2018-01-25T23:06:56.344Z,5.50
2018-01-25T23:09:23.023Z,5.40
2018-01-25T23:11:49.680Z,5.90
2018-01-25T23:14:16.644Z,5.60
2018-01-25T23:16:43.301Z,5.70
2018-01-25T23:19:10.124Z,5.70
2018-01-25T23:21:36.618Z,5.70
2018-01-25T23:24:03.181Z,5.70
2018-01-25T23:26:30.050Z,5.60
2018-01-25T23:28:56.690Z,5.60
2018-01-25T23:31:23.462Z,5.60
2018-01-25T23:33:50.053Z,5.60
2018-01-25T23:36:16.647Z,5.60
2018-01-25T23:38:44.251Z,5.60
2018-01-25T23:41:10.843Z,5.70
2018-01-25T23:43:37.365Z,5.70
2018-01-25T23:46:03.890Z,5.70
2018-01-25T23:48:30.575Z,5.70
2018-01-25T23:50:57.117Z,5.70
2018-01-25T23:53:23.689Z,5.70
2018-01-25T23:55:50.293Z,5.80
2018-01-25T23:58:16.923Z,5.70
